sensor_id;sensor_type;location;lat;lon;timestamp;temperature;humidity
13322;DHT22;6730;46.248;6.930;2022-10-16T00:01:11;15.30;99.90
13322;DHT22;6730;46.248;6.930;2022-10-16T00:03:39;15.20;99.90
13322;DHT22;6730;46.248;6.930;2022-10-16T00:06:05;15.20;99.90
13322;DHT22;6730;46.248;6.930;2022-10-16T00:08:32;15.10;99.90
13322;DHT22;6730;46.248;6.930;2022-10-16T00:11:14;15.00;99.90
13322;DHT22;6730;46.248;6.930;2022-10-16T00:13:44;15.00;99.90
13322;DHT22;6730;46.248;6.930;2022-10-16T00:16:11;15.10;99.90
13322;DHT22;6730;46.248;6.930;2022-10-16T00:18:37;15.30;99.90
13322;DHT22;6730;46.248;6.930;2022-10-16T00:21:12;15.50;99.90
13322;DHT22;6730;46.248;6.930;2022-10-16T00:23:41;15.30;99.90
13322;DHT22;6730;46.248;6.930;2022-10-16T00:26:16;15.30;99.90
13322;DHT22;6730;46.248;6.930;2022-10-16T00:28:48;15.20;99.90
13322;DHT22;6730;46.248;6.930;2022-10-16T00:31:15;15.20;99.90
13322;DHT22;6730;46.248;6.930;2022-10-16T00:33:41;15.20;99.90
13322;DHT22;6730;46.248;6.930;2022-10-16T00:36:11;15.50;99.90
13322;DHT22;6730;46.248;6.930;2022-10-16T00:38:37;15.40;99.90
13322;DHT22;6730;46.248;6.930;2022-10-16T00:41:04;15.30;99.90
13322;DHT22;6730;46.248;6.930;2022-10-16T00:46:03;15.20;99.90
13322;DHT22;6730;46.248;6.930;2022-10-16T00:48:29;15.30;99.90
13322;DHT22;6730;46.248;6.930;2022-10-16T00:50:56;15.20;99.90
13322;DHT22;6730;46.248;6.930;2022-10-16T00:53:25;15.40;99.90
13322;DHT22;6730;46.248;6.930;2022-10-16T00:55:51;15.20;99.90
13322;DHT22;6730;46.248;6.930;2022-10-16T00:58:17;15.00;99.90
13322;DHT22;6730;46.248;6.930;2022-10-16T01:00:43;15.00;99.90
13322;DHT22;6730;46.248;6.930;2022-10-16T01:03:28;14.70;99.90
13322;DHT22;6730;46.248;6.930;2022-10-16T01:06:19;14.60;99.90
13322;DHT22;6730;46.248;6.930;2022-10-16T01:08:51;14.60;99.90
13322;DHT22;6730;46.248;6.930;2022-10-16T01:17:00;14.60;99.90
13322;DHT22;6730;46.248;6.930;2022-10-16T01:22:16;14.40;99.90
13322;DHT22;6730;46.248;6.930;2022-10-16T01:24:46;14.40;99.90
13322;DHT22;6730;46.248;6.930;2022-10-16T01:33:07;14.50;99.90
13322;DHT22;6730;46.248;6.930;2022-10-16T01:35:47;14.80;99.90
13322;DHT22;6730;46.248;6.930;2022-10-16T01:38:23;14.90;99.90
13322;DHT22;6730;46.248;6.930;2022-10-16T01:40:55;14.80;99.90
13322;DHT22;6730;46.248;6.930;2022-10-16T01:43:34;14.70;99.90
13322;DHT22;6730;46.248;6.930;2022-10-16T01:46:02;14.60;99.90
13322;DHT22;6730;46.248;6.930;2022-10-16T01:48:29;14.70;99.90
13322;DHT22;6730;46.248;6.930;2022-10-16T01:51:01;14.70;99.90
13322;DHT22;6730;46.248;6.930;2022-10-16T01:53:28;14.90;99.90
13322;DHT22;6730;46.248;6.930;2022-10-16T01:55:55;14.70;99.90
13322;DHT22;6730;46.248;6.930;2022-10-16T01:58:24;14.50;99.90
13322;DHT22;6730;46.248;6.930;2022-10-16T02:00:52;14.40;99.90
13322;DHT22;6730;46.248;6.930;2022-10-16T02:03:18;14.50;99.90
13322;DHT22;6730;46.248;6.930;2022-10-16T02:05:47;14.50;99.90
13322;DHT22;6730;46.248;6.930;2022-10-16T02:08:15;14.40;99.90
13322;DHT22;6730;46.248;6.930;2022-10-16T02:10:41;14.40;99.90
13322;DHT22;6730;46.248;6.930;2022-10-16T02:13:19;14.60;99.90
13322;DHT22;6730;46.248;6.930;2022-10-16T02:15:47;14.80;99.90
13322;DHT22;6730;46.248;6.930;2022-10-16T02:18:13;14.60;99.90
13322;DHT22;6730;46.248;6.930;2022-10-16T02:20:57;14.50;99.90
13322;DHT22;6730;46.248;6.930;2022-10-16T02:26:15;14.50;99.90
13322;DHT22;6730;46.248;6.930;2022-10-16T02:28:48;14.50;99.90
13322;DHT22;6730;46.248;6.930;2022-10-16T02:31:23;14.70;99.90
13322;DHT22;6730;46.248;6.930;2022-10-16T02:33:53;14.50;99.90
13322;DHT22;6730;46.248;6.930;2022-10-16T02:36:20;14.50;99.90
13322;DHT22;6730;46.248;6.930;2022-10-16T02:38:47;14.50;99.90
13322;DHT22;6730;46.248;6.930;2022-10-16T02:41:13;14.40;99.90
13322;DHT22;6730;46.248;6.930;2022-10-16T02:43:39;14.30;99.90
13322;DHT22;6730;46.248;6.930;2022-10-16T02:46:04;14.30;99.90
13322;DHT22;6730;46.248;6.930;2022-10-16T02:48:30;14.40;99.90
13322;DHT22;6730;46.248;6.930;2022-10-16T02:50:56;14.60;99.90
13322;DHT22;6730;46.248;6.930;2022-10-16T02:53:22;14.60;99.90
13322;DHT22;6730;46.248;6.930;2022-10-16T02:55:48;14.50;99.90
13322;DHT22;6730;46.248;6.930;2022-10-16T02:58:13;14.40;99.90
13322;DHT22;6730;46.248;6.930;2022-10-16T03:00:39;14.50;99.90
13322;DHT22;6730;46.248;6.930;2022-10-16T03:03:05;14.50;99.90
13322;DHT22;6730;46.248;6.930;2022-10-16T03:05:30;14.60;99.90
13322;DHT22;6730;46.248;6.930;2022-10-16T03:07:56;14.60;99.90
13322;DHT22;6730;46.248;6.930;2022-10-16T03:10:21;14.50;99.90
13322;DHT22;6730;46.248;6.930;2022-10-16T03:12:47;14.40;99.90
13322;DHT22;6730;46.248;6.930;2022-10-16T03:15:13;14.40;99.90
13322;DHT22;6730;46.248;6.930;2022-10-16T03:17:38;14.40;99.90
13322;DHT22;6730;46.248;6.930;2022-10-16T03:20:04;14.70;99.90
13322;DHT22;6730;46.248;6.930;2022-10-16T03:22:30;14.80;99.90
13322;DHT22;6730;46.248;6.930;2022-10-16T03:24:56;14.80;99.90
13322;DHT22;6730;46.248;6.930;2022-10-16T03:27:21;14.90;99.90
13322;DHT22;6730;46.248;6.930;2022-10-16T03:29:47;15.00;99.90
13322;DHT22;6730;46.248;6.930;2022-10-16T03:32:13;15.00;99.90
13322;DHT22;6730;46.248;6.930;2022-10-16T03:34:38;15.00;99.90
13322;DHT22;6730;46.248;6.930;2022-10-16T03:37:04;15.00;99.90
13322;DHT22;6730;46.248;6.930;2022-10-16T03:39:30;14.90;99.90
13322;DHT22;6730;46.248;6.930;2022-10-16T03:41:55;14.90;99.90
13322;DHT22;6730;46.248;6.930;2022-10-16T03:44:21;14.90;99.90
13322;DHT22;6730;46.248;6.930;2022-10-16T03:46:47;14.80;99.90
13322;DHT22;6730;46.248;6.930;2022-10-16T03:49:12;14.90;99.90
13322;DHT22;6730;46.248;6.930;2022-10-16T03:51:38;14.90;99.90
13322;DHT22;6730;46.248;6.930;2022-10-16T03:54:04;15.20;99.90
13322;DHT22;6730;46.248;6.930;2022-10-16T03:56:29;15.10;99.90
13322;DHT22;6730;46.248;6.930;2022-10-16T03:58:55;14.90;99.90
13322;DHT22;6730;46.248;6.930;2022-10-16T04:01:20;14.70;99.90
13322;DHT22;6730;46.248;6.930;2022-10-16T04:03:46;14.70;99.90
13322;DHT22;6730;46.248;6.930;2022-10-16T04:06:12;14.70;99.90
13322;DHT22;6730;46.248;6.930;2022-10-16T04:08:37;14.90;99.90
13322;DHT22;6730;46.248;6.930;2022-10-16T04:11:04;15.00;99.90
13322;DHT22;6730;46.248;6.930;2022-10-16T04:13:30;15.30;99.90
13322;DHT22;6730;46.248;6.930;2022-10-16T04:15:55;15.50;99.90
13322;DHT22;6730;46.248;6.930;2022-10-16T04:18:21;15.50;99.90
13322;DHT22;6730;46.248;6.930;2022-10-16T04:20:47;15.50;99.90
13322;DHT22;6730;46.248;6.930;2022-10-16T04:23:12;15.50;99.90
13322;DHT22;6730;46.248;6.930;2022-10-16T04:25:38;15.20;99.90
13322;DHT22;6730;46.248;6.930;2022-10-16T04:28:04;15.00;99.90
13322;DHT22;6730;46.248;6.930;2022-10-16T04:30:29;15.20;99.90
13322;DHT22;6730;46.248;6.930;2022-10-16T04:32:55;15.40;99.90
13322;DHT22;6730;46.248;6.930;2022-10-16T04:35:21;15.40;99.90
13322;DHT22;6730;46.248;6.930;2022-10-16T04:37:47;15.00;99.90
13322;DHT22;6730;46.248;6.930;2022-10-16T04:40:13;15.00;99.90
13322;DHT22;6730;46.248;6.930;2022-10-16T04:42:39;14.90;99.90
13322;DHT22;6730;46.248;6.930;2022-10-16T04:45:06;14.90;99.90
13322;DHT22;6730;46.248;6.930;2022-10-16T04:47:32;14.90;99.90
13322;DHT22;6730;46.248;6.930;2022-10-16T04:49:58;15.00;99.90
13322;DHT22;6730;46.248;6.930;2022-10-16T04:52:28;14.90;99.90
13322;DHT22;6730;46.248;6.930;2022-10-16T04:54:53;14.60;99.90
13322;DHT22;6730;46.248;6.930;2022-10-16T04:57:19;14.50;99.90
13322;DHT22;6730;46.248;6.930;2022-10-16T04:59:45;14.60;99.90
13322;DHT22;6730;46.248;6.930;2022-10-16T05:02:10;14.80;99.90
13322;DHT22;6730;46.248;6.930;2022-10-16T05:04:36;15.10;99.90
13322;DHT22;6730;46.248;6.930;2022-10-16T05:07:02;15.30;99.90
13322;DHT22;6730;46.248;6.930;2022-10-16T05:09:27;15.20;99.90
13322;DHT22;6730;46.248;6.930;2022-10-16T05:11:53;15.10;99.90
13322;DHT22;6730;46.248;6.930;2022-10-16T05:14:19;15.20;99.90
13322;DHT22;6730;46.248;6.930;2022-10-16T05:16:44;15.30;99.90
13322;DHT22;6730;46.248;6.930;2022-10-16T05:19:10;15.10;99.90
13322;DHT22;6730;46.248;6.930;2022-10-16T05:21:36;14.80;99.90
13322;DHT22;6730;46.248;6.930;2022-10-16T05:24:02;14.70;99.90
13322;DHT22;6730;46.248;6.930;2022-10-16T05:26:27;14.70;99.90
13322;DHT22;6730;46.248;6.930;2022-10-16T05:28:53;14.90;99.90
13322;DHT22;6730;46.248;6.930;2022-10-16T05:31:18;14.90;99.90
13322;DHT22;6730;46.248;6.930;2022-10-16T05:33:44;14.90;99.90
13322;DHT22;6730;46.248;6.930;2022-10-16T05:36:10;14.70;99.90
13322;DHT22;6730;46.248;6.930;2022-10-16T05:38:36;14.60;99.90
13322;DHT22;6730;46.248;6.930;2022-10-16T05:41:04;14.50;99.90
13322;DHT22;6730;46.248;6.930;2022-10-16T05:43:30;14.30;99.90
13322;DHT22;6730;46.248;6.930;2022-10-16T05:46:06;14.40;99.90
13322;DHT22;6730;46.248;6.930;2022-10-16T05:48:32;14.50;99.90
13322;DHT22;6730;46.248;6.930;2022-10-16T05:50:59;14.70;99.90
13322;DHT22;6730;46.248;6.930;2022-10-16T05:53:26;14.70;99.90
13322;DHT22;6730;46.248;6.930;2022-10-16T05:55:53;14.50;99.90
13322;DHT22;6730;46.248;6.930;2022-10-16T05:58:19;14.60;99.90
13322;DHT22;6730;46.248;6.930;2022-10-16T06:00:45;14.60;99.90
13322;DHT22;6730;46.248;6.930;2022-10-16T06:03:17;14.50;99.90
13322;DHT22;6730;46.248;6.930;2022-10-16T06:05:43;14.40;99.90
13322;DHT22;6730;46.248;6.930;2022-10-16T06:08:08;14.40;99.90
13322;DHT22;6730;46.248;6.930;2022-10-16T06:10:34;14.40;99.90
13322;DHT22;6730;46.248;6.930;2022-10-16T06:13:00;14.30;99.90
13322;DHT22;6730;46.248;6.930;2022-10-16T06:15:26;14.30;99.90
13322;DHT22;6730;46.248;6.930;2022-10-16T06:17:51;14.40;99.90
13322;DHT22;6730;46.248;6.930;2022-10-16T06:20:17;14.60;99.90
13322;DHT22;6730;46.248;6.930;2022-10-16T06:22:42;14.70;99.90
13322;DHT22;6730;46.248;6.930;2022-10-16T06:25:08;14.60;99.90
13322;DHT22;6730;46.248;6.930;2022-10-16T06:27:34;14.50;99.90
13322;DHT22;6730;46.248;6.930;2022-10-16T06:29:59;14.60;99.90
13322;DHT22;6730;46.248;6.930;2022-10-16T06:32:25;14.60;99.90
13322;DHT22;6730;46.248;6.930;2022-10-16T06:34:50;14.60;99.90
13322;DHT22;6730;46.248;6.930;2022-10-16T06:37:16;14.90;99.90
13322;DHT22;6730;46.248;6.930;2022-10-16T06:39:42;15.10;99.90
13322;DHT22;6730;46.248;6.930;2022-10-16T06:42:07;15.30;99.90
13322;DHT22;6730;46.248;6.930;2022-10-16T06:44:33;15.60;99.90
13322;DHT22;6730;46.248;6.930;2022-10-16T06:46:59;15.60;99.90
13322;DHT22;6730;46.248;6.930;2022-10-16T06:49:24;15.40;99.90
13322;DHT22;6730;46.248;6.930;2022-10-16T06:51:50;15.40;99.90
13322;DHT22;6730;46.248;6.930;2022-10-16T06:54:16;15.50;99.90
13322;DHT22;6730;46.248;6.930;2022-10-16T06:56:41;15.60;99.90
13322;DHT22;6730;46.248;6.930;2022-10-16T06:59:07;15.90;99.90
13322;DHT22;6730;46.248;6.930;2022-10-16T07:01:33;16.10;99.90
13322;DHT22;6730;46.248;6.930;2022-10-16T07:03:59;16.30;99.90
13322;DHT22;6730;46.248;6.930;2022-10-16T07:06:26;16.30;99.90
13322;DHT22;6730;46.248;6.930;2022-10-16T07:08:53;16.30;99.90
13322;DHT22;6730;46.248;6.930;2022-10-16T07:11:21;16.50;99.90
13322;DHT22;6730;46.248;6.930;2022-10-16T07:13:47;16.30;99.90
13322;DHT22;6730;46.248;6.930;2022-10-16T07:16:16;16.20;99.90
13322;DHT22;6730;46.248;6.930;2022-10-16T07:18:43;16.10;99.90
13322;DHT22;6730;46.248;6.930;2022-10-16T07:21:21;16.10;99.90
13322;DHT22;6730;46.248;6.930;2022-10-16T07:23:54;16.50;99.90
13322;DHT22;6730;46.248;6.930;2022-10-16T07:26:20;16.70;99.90
13322;DHT22;6730;46.248;6.930;2022-10-16T07:28:46;16.50;99.90
13322;DHT22;6730;46.248;6.930;2022-10-16T07:31:13;16.50;99.90
13322;DHT22;6730;46.248;6.930;2022-10-16T07:33:40;16.90;99.90
13322;DHT22;6730;46.248;6.930;2022-10-16T07:36:08;16.70;99.90
13322;DHT22;6730;46.248;6.930;2022-10-16T07:38:34;16.60;99.90
13322;DHT22;6730;46.248;6.930;2022-10-16T07:41:02;16.80;99.90
13322;DHT22;6730;46.248;6.930;2022-10-16T07:43:28;17.20;99.90
13322;DHT22;6730;46.248;6.930;2022-10-16T07:45:54;17.40;99.90
13322;DHT22;6730;46.248;6.930;2022-10-16T07:48:21;17.10;99.90
13322;DHT22;6730;46.248;6.930;2022-10-16T07:50:46;17.30;99.90
13322;DHT22;6730;46.248;6.930;2022-10-16T07:53:12;17.80;99.90
13322;DHT22;6730;46.248;6.930;2022-10-16T07:55:38;18.50;99.90
13322;DHT22;6730;46.248;6.930;2022-10-16T07:58:05;19.40;99.90
13322;DHT22;6730;46.248;6.930;2022-10-16T08:00:31;20.10;99.90
13322;DHT22;6730;46.248;6.930;2022-10-16T08:02:57;20.70;99.90
13322;DHT22;6730;46.248;6.930;2022-10-16T08:05:27;20.80;99.90
13322;DHT22;6730;46.248;6.930;2022-10-16T08:07:53;21.00;99.90
13322;DHT22;6730;46.248;6.930;2022-10-16T08:10:21;20.90;99.90
13322;DHT22;6730;46.248;6.930;2022-10-16T08:12:48;21.00;99.90
13322;DHT22;6730;46.248;6.930;2022-10-16T08:15:14;20.10;99.90
13322;DHT22;6730;46.248;6.930;2022-10-16T08:17:40;19.60;99.90
13322;DHT22;6730;46.248;6.930;2022-10-16T08:20:06;19.30;99.90
13322;DHT22;6730;46.248;6.930;2022-10-16T08:22:32;20.20;99.90
13322;DHT22;6730;46.248;6.930;2022-10-16T08:24:57;21.50;99.90
13322;DHT22;6730;46.248;6.930;2022-10-16T08:27:23;22.40;99.90
13322;DHT22;6730;46.248;6.930;2022-10-16T08:29:49;23.20;99.90
13322;DHT22;6730;46.248;6.930;2022-10-16T08:32:15;23.50;97.60
13322;DHT22;6730;46.248;6.930;2022-10-16T08:34:41;23.70;98.50
13322;DHT22;6730;46.248;6.930;2022-10-16T08:37:06;23.30;99.10
13322;DHT22;6730;46.248;6.930;2022-10-16T08:39:37;22.70;98.40
13322;DHT22;6730;46.248;6.930;2022-10-16T08:42:24;21.90;98.40
13322;DHT22;6730;46.248;6.930;2022-10-16T08:47:49;21.80;99.90
13322;DHT22;6730;46.248;6.930;2022-10-16T08:50:26;22.40;99.60
13322;DHT22;6730;46.248;6.930;2022-10-16T08:52:54;22.60;98.10
13322;DHT22;6730;46.248;6.930;2022-10-16T08:55:39;22.00;99.50
13322;DHT22;6730;46.248;6.930;2022-10-16T08:58:21;21.10;99.90
13322;DHT22;6730;46.248;6.930;2022-10-16T09:00:51;20.50;99.90
13322;DHT22;6730;46.248;6.930;2022-10-16T09:06:23;20.10;99.90
13322;DHT22;6730;46.248;6.930;2022-10-16T09:19:52;18.90;99.90
13322;DHT22;6730;46.248;6.930;2022-10-16T09:22:21;18.90;99.90
13322;DHT22;6730;46.248;6.930;2022-10-16T09:24:50;18.80;99.90
13322;DHT22;6730;46.248;6.930;2022-10-16T09:27:16;18.60;99.90
13322;DHT22;6730;46.248;6.930;2022-10-16T09:29:42;18.50;99.90
13322;DHT22;6730;46.248;6.930;2022-10-16T09:32:12;18.80;99.90
13322;DHT22;6730;46.248;6.930;2022-10-16T09:34:43;19.10;99.90
13322;DHT22;6730;46.248;6.930;2022-10-16T09:37:14;18.90;99.90
13322;DHT22;6730;46.248;6.930;2022-10-16T09:39:48;18.60;99.90
13322;DHT22;6730;46.248;6.930;2022-10-16T09:42:35;18.70;99.90
13322;DHT22;6730;46.248;6.930;2022-10-16T09:45:02;18.90;99.90
13322;DHT22;6730;46.248;6.930;2022-10-16T09:47:30;19.10;99.90
13322;DHT22;6730;46.248;6.930;2022-10-16T09:50:02;19.50;99.90
13322;DHT22;6730;46.248;6.930;2022-10-16T09:52:30;19.70;99.90
13322;DHT22;6730;46.248;6.930;2022-10-16T09:55:14;19.90;99.90
13322;DHT22;6730;46.248;6.930;2022-10-16T10:00:16;19.50;99.90
13322;DHT22;6730;46.248;6.930;2022-10-16T10:02:43;19.80;99.90
13322;DHT22;6730;46.248;6.930;2022-10-16T10:05:26;20.20;99.90
13322;DHT22;6730;46.248;6.930;2022-10-16T10:08:01;20.90;99.90
13322;DHT22;6730;46.248;6.930;2022-10-16T10:10:40;21.80;99.90
13322;DHT22;6730;46.248;6.930;2022-10-16T10:13:21;22.60;99.90
13322;DHT22;6730;46.248;6.930;2022-10-16T10:15:47;22.90;98.90
13322;DHT22;6730;46.248;6.930;2022-10-16T10:18:21;23.10;99.30
13322;DHT22;6730;46.248;6.930;2022-10-16T10:20:58;22.50;97.60
13322;DHT22;6730;46.248;6.930;2022-10-16T10:23:26;22.00;98.80
13322;DHT22;6730;46.248;6.930;2022-10-16T10:29:02;21.70;99.90
13322;DHT22;6730;46.248;6.930;2022-10-16T10:42:51;22.30;99.90
13322;DHT22;6730;46.248;6.930;2022-10-16T10:45:57;22.20;99.80
13322;DHT22;6730;46.248;6.930;2022-10-16T10:51:13;21.20;99.80
13322;DHT22;6730;46.248;6.930;2022-10-16T11:02:09;21.40;99.90
13322;DHT22;6730;46.248;6.930;2022-10-16T11:07:36;23.20;99.90
13322;DHT22;6730;46.248;6.930;2022-10-16T11:10:21;23.40;99.70
13322;DHT22;6730;46.248;6.930;2022-10-16T11:12:57;23.50;98.60
13322;DHT22;6730;46.248;6.930;2022-10-16T11:15:35;22.30;99.50
13322;DHT22;6730;46.248;6.930;2022-10-16T11:20:37;22.00;99.90
13322;DHT22;6730;46.248;6.930;2022-10-16T11:25:32;21.10;99.90
13322;DHT22;6730;46.248;6.930;2022-10-16T11:28:19;21.50;99.60
13322;DHT22;6730;46.248;6.930;2022-10-16T11:31:00;21.90;99.90
13322;DHT22;6730;46.248;6.930;2022-10-16T11:36:42;21.70;99.90
13322;DHT22;6730;46.248;6.930;2022-10-16T11:39:22;21.80;99.50
13322;DHT22;6730;46.248;6.930;2022-10-16T11:50:27;21.20;99.10
13322;DHT22;6730;46.248;6.930;2022-10-16T11:55:40;20.90;99.90
13322;DHT22;6730;46.248;6.930;2022-10-16T11:58:28;21.10;99.90
13322;DHT22;6730;46.248;6.930;2022-10-16T12:01:24;21.10;99.90
13322;DHT22;6730;46.248;6.930;2022-10-16T12:04:14;21.10;99.90
13322;DHT22;6730;46.248;6.930;2022-10-16T12:06:57;21.00;99.90
13322;DHT22;6730;46.248;6.930;2022-10-16T12:09:29;21.40;99.90
13322;DHT22;6730;46.248;6.930;2022-10-16T12:11:56;21.20;99.60
13322;DHT22;6730;46.248;6.930;2022-10-16T12:14:38;20.60;99.90
13322;DHT22;6730;46.248;6.930;2022-10-16T12:17:27;20.70;99.90
13322;DHT22;6730;46.248;6.930;2022-10-16T12:20:12;21.10;99.90
13322;DHT22;6730;46.248;6.930;2022-10-16T12:25:36;20.40;99.90
13322;DHT22;6730;46.248;6.930;2022-10-16T12:28:21;20.60;99.90
13322;DHT22;6730;46.248;6.930;2022-10-16T12:31:09;20.60;99.90
13322;DHT22;6730;46.248;6.930;2022-10-16T12:33:40;20.20;99.90
13322;DHT22;6730;46.248;6.930;2022-10-16T12:36:26;20.10;99.90
13322;DHT22;6730;46.248;6.930;2022-10-16T12:38:53;20.10;99.90
13322;DHT22;6730;46.248;6.930;2022-10-16T12:41:28;20.20;99.90
13322;DHT22;6730;46.248;6.930;2022-10-16T12:43:56;20.10;99.90
13322;DHT22;6730;46.248;6.930;2022-10-16T12:46:35;20.20;99.90
13322;DHT22;6730;46.248;6.930;2022-10-16T12:51:42;20.00;99.90
13322;DHT22;6730;46.248;6.930;2022-10-16T12:54:15;20.00;99.90
13322;DHT22;6730;46.248;6.930;2022-10-16T12:56:54;20.10;99.90
13322;DHT22;6730;46.248;6.930;2022-10-16T13:08:01;19.90;99.90
13322;DHT22;6730;46.248;6.930;2022-10-16T13:10:50;19.80;99.90
13322;DHT22;6730;46.248;6.930;2022-10-16T13:19:34;19.90;99.90
13322;DHT22;6730;46.248;6.930;2022-10-16T13:22:08;19.70;99.90
13322;DHT22;6730;46.248;6.930;2022-10-16T13:24:50;19.60;99.90
13322;DHT22;6730;46.248;6.930;2022-10-16T13:27:35;19.50;99.90
13322;DHT22;6730;46.248;6.930;2022-10-16T13:30:15;19.50;99.90
13322;DHT22;6730;46.248;6.930;2022-10-16T13:32:45;19.60;99.90
13322;DHT22;6730;46.248;6.930;2022-10-16T13:35:21;19.40;99.90
13322;DHT22;6730;46.248;6.930;2022-10-16T13:37:47;19.40;99.90
13322;DHT22;6730;46.248;6.930;2022-10-16T13:40:23;19.50;99.90
13322;DHT22;6730;46.248;6.930;2022-10-16T13:42:50;19.50;99.90
13322;DHT22;6730;46.248;6.930;2022-10-16T13:45:24;19.60;99.90
13322;DHT22;6730;46.248;6.930;2022-10-16T13:48:08;19.50;99.90
13322;DHT22;6730;46.248;6.930;2022-10-16T13:50:35;19.40;99.90
13322;DHT22;6730;46.248;6.930;2022-10-16T13:53:18;19.50;99.90
13322;DHT22;6730;46.248;6.930;2022-10-16T13:55:44;19.60;99.90
13322;DHT22;6730;46.248;6.930;2022-10-16T13:58:14;19.80;99.90
13322;DHT22;6730;46.248;6.930;2022-10-16T14:00:52;19.80;99.90
13322;DHT22;6730;46.248;6.930;2022-10-16T14:03:20;20.10;99.90
13322;DHT22;6730;46.248;6.930;2022-10-16T14:05:55;20.40;99.90
13322;DHT22;6730;46.248;6.930;2022-10-16T14:08:23;20.40;99.90
13322;DHT22;6730;46.248;6.930;2022-10-16T14:10:52;20.20;99.90
13322;DHT22;6730;46.248;6.930;2022-10-16T14:13:24;20.20;99.90
13322;DHT22;6730;46.248;6.930;2022-10-16T14:15:52;20.60;99.90
13322;DHT22;6730;46.248;6.930;2022-10-16T14:18:27;20.20;99.80
13322;DHT22;6730;46.248;6.930;2022-10-16T14:20:54;20.40;99.90
13322;DHT22;6730;46.248;6.930;2022-10-16T14:23:29;20.50;99.90
13322;DHT22;6730;46.248;6.930;2022-10-16T14:26:16;20.40;99.90
13322;DHT22;6730;46.248;6.930;2022-10-16T14:28:43;20.20;99.90
13322;DHT22;6730;46.248;6.930;2022-10-16T14:31:35;20.30;99.90
13322;DHT22;6730;46.248;6.930;2022-10-16T14:34:03;20.10;99.90
13322;DHT22;6730;46.248;6.930;2022-10-16T14:36:29;20.20;99.90
13322;DHT22;6730;46.248;6.930;2022-10-16T14:41:24;20.30;99.90
13322;DHT22;6730;46.248;6.930;2022-10-16T14:43:53;20.00;99.90
13322;DHT22;6730;46.248;6.930;2022-10-16T14:46:21;19.70;99.90
13322;DHT22;6730;46.248;6.930;2022-10-16T14:49:27;19.70;99.90
13322;DHT22;6730;46.248;6.930;2022-10-16T14:51:46;19.60;99.90
13322;DHT22;6730;46.248;6.930;2022-10-16T14:54:13;19.40;99.90
13322;DHT22;6730;46.248;6.930;2022-10-16T14:56:52;19.30;99.90
13322;DHT22;6730;46.248;6.930;2022-10-16T14:59:28;19.30;99.90
13322;DHT22;6730;46.248;6.930;2022-10-16T15:01:55;19.40;99.90
13322;DHT22;6730;46.248;6.930;2022-10-16T15:04:21;19.30;99.90
13322;DHT22;6730;46.248;6.930;2022-10-16T15:06:47;19.30;99.90
13322;DHT22;6730;46.248;6.930;2022-10-16T15:09:13;19.20;99.90
13322;DHT22;6730;46.248;6.930;2022-10-16T15:11:39;19.00;99.90
13322;DHT22;6730;46.248;6.930;2022-10-16T15:14:05;19.00;99.90
13322;DHT22;6730;46.248;6.930;2022-10-16T15:16:31;18.80;99.90
13322;DHT22;6730;46.248;6.930;2022-10-16T15:18:57;18.70;99.90
13322;DHT22;6730;46.248;6.930;2022-10-16T15:21:26;18.60;99.90
13322;DHT22;6730;46.248;6.930;2022-10-16T15:23:52;18.60;99.90
13322;DHT22;6730;46.248;6.930;2022-10-16T15:26:18;18.60;99.90
13322;DHT22;6730;46.248;6.930;2022-10-16T15:28:43;18.80;99.90
13322;DHT22;6730;46.248;6.930;2022-10-16T15:31:09;18.80;99.90
13322;DHT22;6730;46.248;6.930;2022-10-16T15:33:34;18.60;99.90
13322;DHT22;6730;46.248;6.930;2022-10-16T15:36:01;18.60;99.90
13322;DHT22;6730;46.248;6.930;2022-10-16T15:38:28;18.30;99.90
13322;DHT22;6730;46.248;6.930;2022-10-16T15:40:54;18.30;99.90
13322;DHT22;6730;46.248;6.930;2022-10-16T15:43:20;18.20;99.90
13322;DHT22;6730;46.248;6.930;2022-10-16T15:46:15;18.10;99.90
13322;DHT22;6730;46.248;6.930;2022-10-16T15:48:42;18.30;99.90
13322;DHT22;6730;46.248;6.930;2022-10-16T15:51:08;18.40;99.90
13322;DHT22;6730;46.248;6.930;2022-10-16T15:53:34;18.30;99.90
13322;DHT22;6730;46.248;6.930;2022-10-16T15:56:08;18.40;99.90
13322;DHT22;6730;46.248;6.930;2022-10-16T15:58:34;18.30;99.90
13322;DHT22;6730;46.248;6.930;2022-10-16T16:01:01;18.20;99.90
13322;DHT22;6730;46.248;6.930;2022-10-16T16:03:28;18.20;99.90
13322;DHT22;6730;46.248;6.930;2022-10-16T16:05:54;18.20;99.90
13322;DHT22;6730;46.248;6.930;2022-10-16T16:08:20;18.30;99.90
13322;DHT22;6730;46.248;6.930;2022-10-16T16:11:04;18.40;99.90
13322;DHT22;6730;46.248;6.930;2022-10-16T16:13:29;18.50;99.90
13322;DHT22;6730;46.248;6.930;2022-10-16T16:15:55;18.40;99.90
13322;DHT22;6730;46.248;6.930;2022-10-16T16:18:21;18.20;99.90
13322;DHT22;6730;46.248;6.930;2022-10-16T16:20:49;18.30;99.90
13322;DHT22;6730;46.248;6.930;2022-10-16T16:23:15;18.20;99.90
13322;DHT22;6730;46.248;6.930;2022-10-16T16:25:41;18.20;99.90
13322;DHT22;6730;46.248;6.930;2022-10-16T16:28:07;18.20;99.90
13322;DHT22;6730;46.248;6.930;2022-10-16T16:30:33;18.10;99.90
13322;DHT22;6730;46.248;6.930;2022-10-16T16:32:58;18.00;99.90
13322;DHT22;6730;46.248;6.930;2022-10-16T16:35:24;17.90;99.90
13322;DHT22;6730;46.248;6.930;2022-10-16T16:37:49;17.90;99.90
13322;DHT22;6730;46.248;6.930;2022-10-16T16:40:15;17.80;99.90
13322;DHT22;6730;46.248;6.930;2022-10-16T16:42:41;17.80;99.90
13322;DHT22;6730;46.248;6.930;2022-10-16T16:45:13;17.90;99.90
13322;DHT22;6730;46.248;6.930;2022-10-16T16:47:41;17.90;99.90
13322;DHT22;6730;46.248;6.930;2022-10-16T16:50:08;17.80;99.90
13322;DHT22;6730;46.248;6.930;2022-10-16T16:52:36;17.70;99.90
13322;DHT22;6730;46.248;6.930;2022-10-16T16:55:02;17.80;99.90
13322;DHT22;6730;46.248;6.930;2022-10-16T16:57:28;17.70;99.90
13322;DHT22;6730;46.248;6.930;2022-10-16T16:59:54;17.50;99.90
13322;DHT22;6730;46.248;6.930;2022-10-16T17:02:19;17.50;99.90
13322;DHT22;6730;46.248;6.930;2022-10-16T17:04:45;17.50;99.90
13322;DHT22;6730;46.248;6.930;2022-10-16T17:07:14;17.50;99.90
13322;DHT22;6730;46.248;6.930;2022-10-16T17:09:39;17.50;99.90
13322;DHT22;6730;46.248;6.930;2022-10-16T17:12:40;17.40;99.90
13322;DHT22;6730;46.248;6.930;2022-10-16T17:15:23;17.40;99.90
13322;DHT22;6730;46.248;6.930;2022-10-16T17:17:56;17.30;99.90
13322;DHT22;6730;46.248;6.930;2022-10-16T17:20:21;17.30;99.90
13322;DHT22;6730;46.248;6.930;2022-10-16T17:23:23;17.30;99.90
13322;DHT22;6730;46.248;6.930;2022-10-16T17:25:49;17.20;99.90
13322;DHT22;6730;46.248;6.930;2022-10-16T17:28:14;17.20;99.90
13322;DHT22;6730;46.248;6.930;2022-10-16T17:30:40;17.30;99.90
13322;DHT22;6730;46.248;6.930;2022-10-16T17:33:07;17.30;99.90
13322;DHT22;6730;46.248;6.930;2022-10-16T17:35:38;17.10;99.90
13322;DHT22;6730;46.248;6.930;2022-10-16T17:38:04;17.00;99.90
13322;DHT22;6730;46.248;6.930;2022-10-16T17:40:30;17.10;99.90
13322;DHT22;6730;46.248;6.930;2022-10-16T17:42:55;17.10;99.90
13322;DHT22;6730;46.248;6.930;2022-10-16T17:45:21;17.10;99.90
13322;DHT22;6730;46.248;6.930;2022-10-16T17:47:47;17.20;99.90
13322;DHT22;6730;46.248;6.930;2022-10-16T17:50:12;17.30;99.90